createdAt,value
2023-05-05T00:00:45.269Z,447.00
2023-05-05T00:01:45.296Z,449.00
2023-05-05T00:02:45.397Z,448.00
2023-05-05T00:03:45.434Z,448.00
2023-05-05T00:04:45.367Z,449.00
2023-05-05T00:05:45.396Z,450.00
2023-05-05T00:06:45.428Z,448.00
2023-05-05T00:07:45.432Z,447.00
2023-05-05T00:08:45.465Z,446.00
2023-05-05T00:09:45.520Z,445.00
2023-05-05T00:10:45.523Z,444.00
2023-05-05T00:11:45.557Z,442.00
2023-05-05T00:12:45.645Z,442.00
2023-05-05T00:13:45.612Z,442.00
2023-05-05T00:14:45.642Z,442.00
2023-05-05T00:15:45.675Z,444.00
2023-05-05T00:16:45.737Z,444.00
2023-05-05T00:17:45.750Z,444.00
2023-05-05T00:18:45.760Z,446.00
2023-05-05T00:19:45.810Z,445.00
2023-05-05T00:20:45.841Z,446.00
2023-05-05T00:21:45.881Z,447.00
2023-05-05T00:22:45.915Z,448.00
2023-05-05T00:23:45.922Z,448.00
2023-05-05T00:24:45.964Z,447.00
2023-05-05T00:25:45.994Z,447.00
2023-05-05T00:26:46.035Z,446.00
2023-05-05T00:27:46.049Z,448.00
2023-05-05T00:28:46.079Z,451.00
2023-05-05T00:29:46.108Z,452.00
2023-05-05T00:30:46.145Z,450.00
2023-05-05T00:31:46.193Z,451.00
2023-05-05T00:32:46.259Z,450.00
2023-05-05T00:33:46.271Z,449.00
2023-05-05T00:34:46.281Z,448.00
2023-05-05T00:35:46.302Z,446.00
2023-05-05T00:36:46.339Z,445.00
2023-05-05T00:37:46.375Z,445.00
2023-05-05T00:38:46.397Z,447.00
2023-05-05T00:39:46.406Z,448.00
2023-05-05T00:40:46.460Z,448.00
2023-05-05T00:41:46.479Z,451.00
2023-05-05T00:42:46.501Z,452.00
2023-05-05T00:43:46.513Z,452.00
2023-05-05T00:44:46.566Z,454.00
2023-05-05T00:45:46.586Z,455.00
2023-05-05T00:46:46.640Z,455.00
2023-05-05T00:47:46.688Z,456.00
2023-05-05T00:48:46.672Z,455.00
2023-05-05T00:49:46.691Z,457.00
2023-05-05T00:50:46.738Z,454.00
2023-05-05T00:51:46.806Z,453.00
2023-05-05T00:52:46.803Z,454.00
2023-05-05T00:53:46.817Z,451.00
2023-05-05T00:54:46.869Z,449.00
2023-05-05T00:55:46.881Z,449.00
2023-05-05T00:56:46.929Z,450.00
2023-05-05T00:57:46.942Z,449.00
2023-05-05T00:58:46.970Z,449.00
2023-05-05T00:59:46.998Z,449.00
2023-05-05T01:00:47.031Z,448.00
2023-05-05T01:01:47.096Z,450.00
2023-05-05T01:02:47.135Z,451.00
2023-05-05T01:03:47.204Z,452.00
2023-05-05T01:04:47.138Z,452.00
2023-05-05T01:05:47.174Z,451.00
2023-05-05T01:06:47.191Z,450.00
2023-05-05T01:07:47.207Z,449.00
2023-05-05T01:08:47.280Z,449.00
2023-05-05T01:09:47.268Z,448.00
2023-05-05T01:10:47.314Z,447.00
2023-05-05T01:11:47.339Z,445.00
2023-05-05T01:12:47.419Z,446.00
2023-05-05T01:13:47.395Z,442.00
2023-05-05T01:14:47.431Z,440.00
2023-05-05T01:15:47.451Z,444.00
2023-05-05T01:16:47.482Z,445.00
2023-05-05T01:17:47.588Z,445.00
2023-05-05T01:18:47.551Z,443.00
2023-05-05T01:19:47.586Z,442.00
2023-05-05T01:20:47.609Z,444.00
2023-05-05T01:21:47.650Z,445.00
2023-05-05T01:22:47.691Z,445.00
2023-05-05T01:23:47.705Z,446.00
2023-05-05T01:24:47.742Z,447.00
2023-05-05T01:25:47.770Z,447.00
2023-05-05T01:26:47.811Z,449.00
2023-05-05T01:27:47.833Z,448.00
2023-05-05T01:28:47.881Z,448.00
2023-05-05T01:29:47.898Z,450.00
2023-05-05T01:30:47.917Z,449.00
2023-05-05T01:31:48.079Z,448.00
2023-05-05T01:32:48.084Z,446.00
2023-05-05T01:33:48.014Z,446.00
2023-05-05T01:34:48.058Z,445.00
2023-05-05T01:35:48.083Z,447.00
2023-05-05T01:36:48.105Z,447.00
2023-05-05T01:37:48.154Z,447.00
2023-05-05T01:38:48.173Z,445.00
2023-05-05T01:39:48.210Z,447.00
2023-05-05T01:40:48.229Z,448.00
2023-05-05T01:41:48.273Z,448.00
2023-05-05T01:42:48.326Z,448.00
2023-05-05T01:43:48.331Z,447.00
2023-05-05T01:44:48.366Z,449.00
2023-05-05T01:45:48.413Z,450.00
2023-05-05T01:46:48.436Z,451.00
2023-05-05T01:47:48.500Z,449.00
2023-05-05T01:48:48.487Z,449.00
2023-05-05T01:49:48.544Z,450.00
2023-05-05T01:50:48.535Z,453.00
2023-05-05T01:51:48.570Z,453.00
2023-05-05T01:52:48.644Z,453.00
2023-05-05T01:53:48.643Z,454.00
2023-05-05T01:54:48.674Z,454.00
2023-05-05T01:55:48.713Z,452.00
2023-05-05T01:56:48.745Z,450.00
2023-05-05T01:57:48.762Z,448.00
2023-05-05T01:58:48.774Z,447.00
2023-05-05T01:59:48.820Z,447.00
2023-05-05T02:00:48.836Z,443.00
2023-05-05T02:01:48.898Z,446.00
2023-05-05T02:02:48.983Z,445.00
2023-05-05T02:03:48.923Z,446.00
2023-05-05T02:04:48.969Z,447.00
2023-05-05T02:05:48.985Z,448.00
2023-05-05T02:06:49.019Z,449.00
2023-05-05T02:07:49.058Z,448.00
2023-05-05T02:08:49.080Z,447.00
2023-05-05T02:09:49.112Z,444.00
2023-05-05T02:10:49.137Z,444.00
2023-05-05T02:11:49.165Z,447.00
2023-05-05T02:12:49.251Z,449.00
2023-05-05T02:13:49.278Z,451.00
2023-05-05T02:14:49.245Z,453.00
2023-05-05T02:15:49.326Z,454.00
2023-05-05T02:16:49.303Z,456.00
2023-05-05T02:17:49.400Z,455.00
2023-05-05T02:18:49.367Z,457.00
2023-05-05T02:19:49.417Z,458.00
2023-05-05T02:20:49.480Z,459.00
2023-05-05T02:21:49.502Z,461.00
2023-05-05T02:22:49.527Z,460.00
2023-05-05T02:23:49.557Z,460.00
2023-05-05T02:24:49.584Z,461.00
2023-05-05T02:25:49.601Z,460.00
2023-05-05T02:26:49.643Z,457.00
2023-05-05T02:27:49.689Z,456.00
2023-05-05T02:28:49.700Z,456.00
2023-05-05T02:29:49.737Z,456.00
2023-05-05T02:30:49.768Z,455.00
2023-05-05T02:31:49.890Z,455.00
2023-05-05T02:32:49.869Z,454.00
2023-05-05T02:33:49.885Z,454.00
2023-05-05T02:34:49.928Z,454.00
2023-05-05T02:35:49.960Z,456.00
2023-05-05T02:36:49.966Z,457.00
2023-05-05T02:37:49.997Z,458.00
2023-05-05T02:38:50.045Z,459.00
2023-05-05T02:39:50.057Z,458.00
2023-05-05T02:40:50.123Z,457.00
2023-05-05T02:41:50.147Z,456.00
2023-05-05T02:42:50.167Z,457.00
2023-05-05T02:43:50.200Z,458.00
2023-05-05T02:44:50.223Z,458.00
2023-05-05T02:45:50.245Z,456.00
2023-05-05T02:46:50.315Z,457.00
2023-05-05T02:47:50.444Z,460.00
2023-05-05T02:48:50.359Z,461.00
2023-05-05T02:49:50.390Z,460.00
2023-05-05T02:50:50.407Z,459.00
2023-05-05T02:51:50.437Z,457.00
2023-05-05T02:52:50.506Z,457.00
2023-05-05T02:53:50.517Z,455.00
2023-05-05T02:54:50.545Z,453.00
2023-05-05T02:55:50.590Z,450.00
2023-05-05T02:56:50.605Z,449.00
2023-05-05T02:57:50.648Z,450.00
2023-05-05T02:58:50.681Z,452.00
2023-05-05T02:59:50.719Z,452.00
2023-05-05T03:00:50.736Z,451.00
2023-05-05T03:01:50.894Z,450.00
2023-05-05T03:02:50.931Z,452.00
2023-05-05T03:03:50.966Z,451.00
2023-05-05T03:04:50.887Z,450.00
2023-05-05T03:05:50.928Z,451.00
2023-05-05T03:06:50.942Z,451.00
2023-05-05T03:07:50.976Z,451.00
2023-05-05T03:08:51.002Z,453.00
2023-05-05T03:09:51.017Z,456.00
2023-05-05T03:10:51.058Z,458.00
2023-05-05T03:11:51.105Z,461.00
2023-05-05T03:12:51.152Z,461.00
2023-05-05T03:13:51.173Z,461.00
2023-05-05T03:14:51.209Z,460.00
2023-05-05T03:15:51.270Z,459.00
2023-05-05T03:16:51.286Z,460.00
2023-05-05T03:17:51.371Z,457.00
2023-05-05T03:18:51.362Z,456.00
2023-05-05T03:19:51.382Z,458.00
2023-05-05T03:20:51.418Z,459.00
2023-05-05T03:21:51.469Z,458.00
2023-05-05T03:22:51.501Z,457.00
2023-05-05T03:23:51.542Z,457.00
2023-05-05T03:24:51.581Z,458.00
2023-05-05T03:25:51.607Z,459.00
2023-05-05T03:26:51.641Z,461.00
2023-05-05T03:27:51.665Z,460.00
2023-05-05T03:28:51.716Z,461.00
2023-05-05T03:29:51.741Z,459.00
2023-05-05T03:30:51.784Z,462.00
2023-05-05T03:31:51.818Z,462.00
2023-05-05T03:32:52.006Z,465.00
2023-05-05T03:33:51.919Z,469.00
2023-05-05T03:34:51.946Z,471.00
2023-05-05T03:35:51.984Z,471.00
2023-05-05T03:36:52.007Z,470.00
2023-05-05T03:37:52.052Z,470.00
2023-05-05T03:38:52.082Z,470.00
2023-05-05T03:39:52.126Z,468.00
2023-05-05T03:40:52.143Z,468.00
2023-05-05T03:41:52.180Z,466.00
2023-05-05T03:42:52.245Z,465.00
2023-05-05T03:43:52.236Z,465.00
2023-05-05T03:44:52.285Z,463.00
2023-05-05T03:45:52.366Z,467.00
2023-05-05T03:46:52.360Z,468.00
2023-05-05T03:47:52.381Z,468.00
2023-05-05T03:48:52.423Z,467.00
2023-05-05T03:49:52.476Z,465.00
2023-05-05T03:50:52.469Z,465.00
2023-05-05T03:51:52.525Z,464.00
2023-05-05T03:52:52.577Z,464.00
2023-05-05T03:53:52.595Z,463.00
2023-05-05T03:54:52.620Z,465.00
2023-05-05T03:55:52.666Z,465.00
2023-05-05T03:56:52.699Z,464.00
2023-05-05T03:57:52.749Z,462.00
2023-05-05T03:58:52.773Z,460.00
2023-05-05T03:59:52.790Z,459.00
2023-05-05T04:00:52.846Z,459.00
2023-05-05T04:01:52.883Z,460.00
2023-05-05T04:02:52.957Z,460.00
2023-05-05T04:03:52.982Z,461.00
2023-05-05T04:04:53.005Z,462.00
2023-05-05T04:05:53.029Z,461.00
2023-05-05T04:06:53.092Z,459.00
2023-05-05T04:07:53.111Z,459.00
2023-05-05T04:08:53.140Z,462.00
2023-05-05T04:09:53.180Z,462.00
2023-05-05T04:10:53.222Z,462.00
2023-05-05T04:11:53.233Z,461.00
2023-05-05T04:12:53.321Z,463.00
2023-05-05T04:13:53.305Z,461.00
2023-05-05T04:14:53.349Z,462.00
2023-05-05T04:15:53.381Z,463.00
2023-05-05T04:16:53.417Z,464.00
2023-05-05T04:17:53.558Z,465.00
2023-05-05T04:18:53.469Z,463.00
2023-05-05T04:19:53.526Z,463.00
2023-05-05T04:20:53.552Z,463.00
2023-05-05T04:21:53.583Z,460.00
2023-05-05T04:22:53.617Z,461.00
2023-05-05T04:23:53.650Z,463.00
2023-05-05T04:24:53.655Z,463.00
2023-05-05T04:25:53.704Z,466.00
2023-05-05T04:26:53.738Z,467.00
2023-05-05T04:27:53.779Z,467.00
2023-05-05T04:28:53.771Z,467.00
2023-05-05T04:29:53.818Z,464.00
2023-05-05T04:30:53.879Z,462.00
2023-05-05T04:31:53.857Z,461.00
2023-05-05T04:32:53.996Z,459.00
2023-05-05T04:33:53.933Z,459.00
2023-05-05T04:34:53.930Z,458.00
2023-05-05T04:35:53.976Z,458.00
2023-05-05T04:36:54.015Z,457.00
2023-05-05T04:37:54.011Z,461.00
2023-05-05T04:38:54.096Z,461.00
2023-05-05T04:39:54.076Z,460.00
2023-05-05T04:40:54.092Z,459.00
2023-05-05T04:41:54.124Z,458.00
2023-05-05T04:42:54.134Z,459.00
2023-05-05T04:43:54.169Z,461.00
2023-05-05T04:44:54.180Z,464.00
2023-05-05T04:45:54.192Z,465.00
2023-05-05T04:46:54.347Z,466.00
2023-05-05T04:47:54.236Z,467.00
2023-05-05T04:48:54.229Z,465.00
2023-05-05T04:49:54.306Z,464.00
2023-05-05T04:50:54.422Z,463.00
2023-05-05T04:51:54.413Z,462.00
2023-05-05T04:52:54.430Z,462.00
2023-05-05T04:53:54.428Z,463.00
2023-05-05T04:54:54.446Z,463.00
2023-05-05T04:55:54.437Z,462.00
2023-05-05T04:56:54.507Z,463.00
2023-05-05T04:57:54.496Z,464.00
2023-05-05T04:58:54.514Z,465.00
2023-05-05T04:59:54.566Z,466.00
2023-05-05T05:00:54.587Z,470.00
2023-05-05T05:01:54.730Z,468.00
2023-05-05T05:02:54.706Z,469.00
2023-05-05T05:03:54.739Z,469.00
2023-05-05T05:04:54.757Z,471.00
2023-05-05T05:05:54.785Z,473.00
2023-05-05T05:06:56.156Z,472.00
2023-05-05T05:07:55.129Z,475.00
2023-05-05T05:08:55.048Z,475.00
2023-05-05T05:09:55.076Z,476.00
2023-05-05T05:10:55.063Z,474.00
2023-05-05T05:11:55.118Z,472.00
2023-05-05T05:12:55.190Z,472.00
2023-05-05T05:13:55.169Z,472.00
2023-05-05T05:14:55.214Z,471.00
2023-05-05T05:15:55.283Z,472.00
2023-05-05T05:16:55.398Z,472.00
2023-05-05T05:17:55.435Z,471.00
2023-05-05T05:18:55.408Z,472.00
2023-05-05T05:19:55.468Z,472.00
2023-05-05T05:20:55.443Z,474.00
2023-05-05T05:21:55.511Z,473.00
2023-05-05T05:22:55.524Z,471.00
2023-05-05T05:23:55.536Z,467.00
2023-05-05T05:24:55.557Z,468.00
2023-05-05T05:25:55.618Z,466.00
2023-05-05T05:26:56.124Z,465.00
2023-05-05T05:28:09.003Z,464.00
2023-05-05T05:28:56.738Z,462.00
2023-05-05T05:29:55.708Z,462.00
2023-05-05T05:30:55.714Z,461.00
2023-05-05T05:31:55.700Z,462.00
2023-05-05T05:32:55.729Z,469.00
2023-05-05T05:33:55.710Z,476.00
2023-05-05T05:34:55.677Z,487.00
2023-05-05T05:35:55.675Z,510.00
2023-05-05T05:36:55.674Z,537.00
2023-05-05T05:37:55.640Z,566.00
2023-05-05T05:38:55.638Z,616.00
2023-05-05T05:39:55.668Z,623.00
2023-05-05T05:40:55.643Z,637.00
2023-05-05T05:41:55.623Z,662.00
2023-05-05T05:42:55.627Z,682.00
2023-05-05T05:43:55.610Z,712.00
2023-05-05T05:44:55.653Z,730.00
2023-05-05T05:45:55.738Z,745.00
2023-05-05T05:46:55.734Z,755.00
2023-05-05T05:47:55.815Z,770.00
2023-05-05T05:48:55.772Z,790.00
2023-05-05T05:49:55.757Z,797.00
2023-05-05T05:50:55.772Z,804.00
2023-05-05T05:51:55.775Z,814.00
2023-05-05T05:52:55.848Z,822.00
2023-05-05T05:53:58.163Z,823.00
2023-05-05T05:54:55.818Z,826.00
2023-05-05T05:55:55.818Z,825.00
2023-05-05T05:56:55.798Z,827.00
2023-05-05T05:57:55.813Z,830.00
2023-05-05T05:58:56.113Z,832.00
2023-05-05T05:59:55.809Z,845.00
2023-05-05T06:00:55.817Z,856.00
2023-05-05T06:01:55.788Z,860.00
2023-05-05T06:02:55.884Z,859.00
2023-05-05T06:03:56.238Z,859.00
2023-05-05T06:04:55.761Z,860.00
2023-05-05T06:05:55.760Z,867.00
2023-05-05T06:06:55.749Z,872.00
2023-05-05T06:07:55.746Z,878.00
2023-05-05T06:08:55.756Z,886.00
2023-05-05T06:09:55.739Z,891.00
2023-05-05T06:10:55.732Z,892.00
2023-05-05T06:11:55.721Z,893.00
2023-05-05T06:12:55.821Z,892.00
2023-05-05T06:13:55.698Z,896.00
2023-05-05T06:14:55.708Z,904.00
2023-05-05T06:15:55.798Z,914.00
2023-05-05T06:16:55.675Z,920.00
2023-05-05T06:17:55.697Z,929.00
2023-05-05T06:18:56.108Z,935.00
2023-05-05T06:19:55.670Z,940.00
2023-05-05T06:20:55.653Z,947.00
2023-05-05T06:21:55.639Z,960.00
2023-05-05T06:22:55.647Z,967.00
2023-05-05T06:23:55.636Z,982.00
2023-05-05T06:24:55.638Z,989.00
2023-05-05T06:25:55.644Z,1000.00
2023-05-05T06:26:55.639Z,1008.00
2023-05-05T06:27:55.623Z,1018.00
2023-05-05T06:28:55.606Z,1026.00
2023-05-05T06:29:55.612Z,1034.00
2023-05-05T06:30:55.592Z,1038.00
2023-05-05T06:31:55.612Z,1040.00
2023-05-05T06:32:55.611Z,1043.00
2023-05-05T06:33:55.596Z,1044.00
2023-05-05T06:34:55.593Z,1071.00
2023-05-05T06:35:55.568Z,1070.00
2023-05-05T06:36:55.623Z,1067.00
2023-05-05T06:37:55.596Z,1069.00
2023-05-05T06:38:55.655Z,1080.00
2023-05-05T06:39:55.717Z,1094.00
2023-05-05T06:40:55.785Z,1110.00
2023-05-05T06:41:55.837Z,1116.00
2023-05-05T06:42:55.911Z,1116.00
2023-05-05T06:43:56.137Z,1114.00
2023-05-05T06:44:56.025Z,1120.00
2023-05-05T06:45:56.057Z,1121.00
2023-05-05T06:46:56.662Z,1123.00
2023-05-05T06:47:56.224Z,1126.00
2023-05-05T06:48:56.243Z,1131.00
2023-05-05T06:49:56.281Z,1131.00
2023-05-05T06:50:56.364Z,1132.00
2023-05-05T06:51:56.513Z,1132.00
2023-05-05T06:52:56.447Z,1133.00
2023-05-05T06:53:56.644Z,1137.00
2023-05-05T06:54:56.558Z,1138.00
2023-05-05T06:55:56.599Z,1141.00
2023-05-05T06:56:59.277Z,1146.00
2023-05-05T06:57:56.668Z,1147.00
2023-05-05T06:58:56.621Z,1146.00
2023-05-05T06:59:56.634Z,1146.00
2023-05-05T07:00:56.647Z,1153.00
2023-05-05T07:01:56.733Z,1150.00
2023-05-05T07:02:56.638Z,1152.00
2023-05-05T07:03:56.662Z,1156.00
2023-05-05T07:04:56.614Z,1151.00
2023-05-05T07:05:56.578Z,1153.00
2023-05-05T07:06:56.604Z,1151.00
2023-05-05T07:07:56.729Z,1130.00
2023-05-05T07:08:56.621Z,1134.00
2023-05-05T07:09:56.556Z,1142.00
2023-05-05T07:10:56.560Z,1154.00
2023-05-05T07:11:56.624Z,1164.00
2023-05-05T07:12:56.635Z,1164.00
2023-05-05T07:13:56.550Z,1167.00
2023-05-05T07:14:56.533Z,1168.00
2023-05-05T07:15:56.532Z,1163.00
2023-05-05T07:16:56.615Z,1158.00
2023-05-05T07:17:56.616Z,1158.00
2023-05-05T07:18:56.508Z,1157.00
2023-05-05T07:19:56.490Z,1158.00
2023-05-05T07:20:56.520Z,1160.00
2023-05-05T07:21:56.508Z,1158.00
2023-05-05T07:22:56.497Z,1161.00
2023-05-05T07:23:56.804Z,1155.00
2023-05-05T07:24:56.467Z,1115.00
2023-05-05T07:25:56.468Z,1127.00
2023-05-05T07:26:56.457Z,1123.00
2023-05-05T07:27:56.451Z,1125.00
2023-05-05T07:28:56.453Z,1125.00
2023-05-05T07:29:56.468Z,1129.00
2023-05-05T07:30:56.439Z,1135.00
2023-05-05T07:31:56.531Z,1147.00
2023-05-05T07:32:56.436Z,1152.00
2023-05-05T07:33:56.415Z,1183.00
2023-05-05T07:34:56.417Z,1195.00
2023-05-05T07:35:56.403Z,1188.00
2023-05-05T07:36:56.649Z,1181.00
2023-05-05T07:37:56.395Z,1186.00
2023-05-05T07:38:56.378Z,1191.00
2023-05-05T07:39:56.431Z,1194.00
2023-05-05T07:40:56.356Z,1198.00
2023-05-05T07:41:56.360Z,1193.00
2023-05-05T07:42:56.355Z,1195.00
2023-05-05T07:43:56.358Z,1197.00
2023-05-05T07:44:56.353Z,1194.00
2023-05-05T07:45:56.356Z,1197.00
2023-05-05T07:46:56.378Z,1204.00
2023-05-05T07:47:56.471Z,1206.00
2023-05-05T07:48:56.641Z,1209.00
2023-05-05T07:49:56.491Z,1212.00
2023-05-05T07:50:56.527Z,1215.00
2023-05-05T07:51:56.571Z,1221.00
2023-05-05T07:53:06.184Z,1223.00
2023-05-05T07:53:57.643Z,1222.00
2023-05-05T07:54:56.580Z,1225.00
2023-05-05T07:55:56.645Z,1221.00
2023-05-05T07:56:56.558Z,1214.00
2023-05-05T07:57:56.554Z,1212.00
2023-05-05T07:58:56.626Z,1206.00
2023-05-05T07:59:56.538Z,1205.00
2023-05-05T08:00:56.557Z,1204.00
2023-05-05T08:01:56.644Z,1208.00
2023-05-05T08:02:56.592Z,1210.00
2023-05-05T08:03:56.573Z,1212.00
2023-05-05T08:04:56.512Z,1215.00
2023-05-05T08:05:56.513Z,1214.00
2023-05-05T08:06:56.490Z,1214.00
2023-05-05T08:07:56.487Z,1218.00
2023-05-05T08:08:56.533Z,1219.00
2023-05-05T08:09:56.482Z,1213.00
2023-05-05T08:10:56.466Z,1215.00
2023-05-05T08:11:56.531Z,1214.00
2023-05-05T08:12:56.526Z,1211.00
2023-05-05T08:13:56.549Z,1210.00
2023-05-05T08:14:56.542Z,1209.00
2023-05-05T08:15:56.596Z,1210.00
2023-05-05T08:16:56.590Z,1213.00
2023-05-05T08:17:56.649Z,1215.00
2023-05-05T08:18:56.636Z,1219.00
2023-05-05T08:19:56.665Z,1216.00
2023-05-05T08:20:56.668Z,1211.00
2023-05-05T08:21:56.796Z,1201.00
2023-05-05T08:22:56.719Z,1152.00
2023-05-05T08:23:57.157Z,827.00
2023-05-05T08:24:56.770Z,671.00
2023-05-05T08:25:56.809Z,651.00
2023-05-05T08:26:56.877Z,627.00
2023-05-05T08:27:57.038Z,556.00
2023-05-05T08:28:57.003Z,535.00
2023-05-05T08:29:57.003Z,511.00
2023-05-05T08:30:57.016Z,512.00
2023-05-05T08:31:57.103Z,501.00
2023-05-05T08:32:57.122Z,490.00
2023-05-05T08:33:57.049Z,484.00
2023-05-05T08:34:57.043Z,479.00
2023-05-05T08:35:57.051Z,473.00
2023-05-05T08:36:57.071Z,476.00
2023-05-05T08:37:59.145Z,543.00
2023-05-05T08:38:57.152Z,527.00
2023-05-05T08:39:57.200Z,529.00
2023-05-05T08:40:57.226Z,535.00
2023-05-05T08:41:57.206Z,546.00
2023-05-05T08:42:57.233Z,556.00
2023-05-05T08:43:57.338Z,556.00
2023-05-05T08:44:58.971Z,557.00
2023-05-05T08:45:57.274Z,558.00
2023-05-05T08:46:57.376Z,566.00
2023-05-05T08:47:57.466Z,587.00
2023-05-05T08:48:57.458Z,595.00
2023-05-05T08:49:57.492Z,601.00
2023-05-05T08:50:59.761Z,602.00
2023-05-05T08:51:57.569Z,600.00
2023-05-05T08:52:57.595Z,599.00
2023-05-05T08:53:57.661Z,602.00
2023-05-05T08:54:57.561Z,606.00
2023-05-05T08:55:57.630Z,607.00
2023-05-05T08:56:57.515Z,603.00
2023-05-05T08:57:57.553Z,592.00
2023-05-05T08:58:57.537Z,595.00
2023-05-05T08:59:57.562Z,596.00
2023-05-05T09:00:57.543Z,603.00
2023-05-05T09:01:57.532Z,599.00
2023-05-05T09:02:57.671Z,591.00
2023-05-05T09:03:57.469Z,591.00
2023-05-05T09:04:57.462Z,599.00
2023-05-05T09:05:57.476Z,603.00
2023-05-05T09:06:57.468Z,603.00
2023-05-05T09:07:57.443Z,606.00
2023-05-05T09:08:59.449Z,606.00
2023-05-05T09:09:57.455Z,610.00
2023-05-05T09:10:57.447Z,613.00
2023-05-05T09:11:57.442Z,613.00
2023-05-05T09:12:57.460Z,621.00
2023-05-05T09:13:57.452Z,681.00
2023-05-05T09:14:59.065Z,689.00
2023-05-05T09:15:57.551Z,695.00
2023-05-05T09:16:57.658Z,701.00
2023-05-05T09:17:57.657Z,703.00
2023-05-05T09:18:57.662Z,705.00
2023-05-05T09:19:57.687Z,694.00
2023-05-05T09:20:59.363Z,703.00
2023-05-05T09:21:57.759Z,708.00
2023-05-05T09:22:57.759Z,711.00
2023-05-05T09:24:00.374Z,718.00
2023-05-05T09:24:58.812Z,724.00
2023-05-05T09:25:57.794Z,733.00
2023-05-05T09:26:59.136Z,658.00
2023-05-05T09:27:57.769Z,589.00
2023-05-05T09:28:57.775Z,581.00
2023-05-05T09:29:57.767Z,581.00
2023-05-05T09:30:57.775Z,578.00
2023-05-05T09:31:57.866Z,562.00
2023-05-05T09:32:58.191Z,554.00
2023-05-05T09:33:57.751Z,552.00
2023-05-05T09:34:57.746Z,554.00
2023-05-05T09:35:57.728Z,555.00
2023-05-05T09:36:57.738Z,552.00
2023-05-05T09:37:58.176Z,548.00
2023-05-05T09:38:58.808Z,551.00
2023-05-05T09:39:57.807Z,548.00
2023-05-05T09:40:57.891Z,545.00
2023-05-05T09:41:57.901Z,548.00
2023-05-05T09:42:57.942Z,553.00
2023-05-05T09:43:57.981Z,554.00
2023-05-05T09:44:59.886Z,556.00
2023-05-05T09:45:58.141Z,545.00
2023-05-05T09:46:58.137Z,539.00
2023-05-05T09:48:00.297Z,543.00
2023-05-05T09:48:58.347Z,544.00
2023-05-05T09:49:58.409Z,540.00
2023-05-05T09:50:58.435Z,540.00
2023-05-05T09:51:58.488Z,539.00
2023-05-05T09:52:58.564Z,534.00
2023-05-05T09:53:58.573Z,532.00
2023-05-05T09:54:58.642Z,534.00
2023-05-05T09:55:58.666Z,538.00
2023-05-05T09:56:58.699Z,540.00
2023-05-05T09:57:58.768Z,533.00
2023-05-05T09:58:58.816Z,532.00
2023-05-05T09:59:58.838Z,522.00
2023-05-05T10:00:58.874Z,522.00
2023-05-05T10:01:59.015Z,520.00
2023-05-05T10:02:58.997Z,521.00
2023-05-05T10:03:59.097Z,520.00
2023-05-05T10:05:01.628Z,517.00
2023-05-05T10:05:59.103Z,516.00
2023-05-05T10:06:59.086Z,517.00
2023-05-05T10:07:59.069Z,514.00
2023-05-05T10:08:59.046Z,512.00
2023-05-05T10:09:59.065Z,513.00
2023-05-05T10:10:59.036Z,520.00
2023-05-05T10:11:59.039Z,522.00
2023-05-05T10:12:59.063Z,521.00
2023-05-05T10:13:59.041Z,517.00
2023-05-05T10:14:59.019Z,515.00
2023-05-05T10:15:59.085Z,513.00
2023-05-05T10:16:59.009Z,513.00
2023-05-05T10:18:07.034Z,507.00
2023-05-05T10:19:00.021Z,506.00
2023-05-05T10:19:59.068Z,507.00
2023-05-05T10:20:59.010Z,506.00
2023-05-05T10:21:58.979Z,507.00
2023-05-05T10:22:58.979Z,512.00
2023-05-05T10:23:58.977Z,549.00
2023-05-05T10:24:58.963Z,553.00
2023-05-05T10:25:58.959Z,562.00
2023-05-05T10:26:59.013Z,568.00
2023-05-05T10:27:59.060Z,572.00
2023-05-05T10:28:59.123Z,577.00
2023-05-05T10:29:59.670Z,582.00
2023-05-05T10:30:59.252Z,585.00
2023-05-05T10:31:59.370Z,591.00
2023-05-05T10:33:13.112Z,584.00
2023-05-05T10:34:00.546Z,576.00
2023-05-05T10:34:59.343Z,574.00
2023-05-05T10:35:59.375Z,583.00
2023-05-05T10:36:59.307Z,594.00
2023-05-05T10:37:59.297Z,587.00
2023-05-05T10:38:59.292Z,577.00
2023-05-05T10:39:59.278Z,550.00
2023-05-05T10:40:59.288Z,528.00
2023-05-05T10:41:59.287Z,523.00
2023-05-05T10:42:59.281Z,523.00
2023-05-05T10:44:00.392Z,521.00
2023-05-05T10:44:59.311Z,517.00
2023-05-05T10:45:59.430Z,508.00
2023-05-05T10:46:59.416Z,490.00
2023-05-05T10:47:59.460Z,466.00
2023-05-05T10:48:59.642Z,459.00
2023-05-05T10:49:59.485Z,456.00
2023-05-05T10:50:59.447Z,473.00
2023-05-05T10:51:59.504Z,470.00
2023-05-05T10:52:59.453Z,470.00
2023-05-05T10:53:59.523Z,473.00
2023-05-05T10:54:59.551Z,472.00
2023-05-05T10:55:59.637Z,471.00
2023-05-05T10:56:59.683Z,471.00
2023-05-05T10:57:59.734Z,474.00
2023-05-05T10:59:00.801Z,475.00
2023-05-05T11:00:00.286Z,477.00
2023-05-05T11:00:59.959Z,477.00
2023-05-05T11:01:59.974Z,480.00
2023-05-05T11:03:00.141Z,479.00
2023-05-05T11:04:00.157Z,476.00
2023-05-05T11:05:00.189Z,474.00
2023-05-05T11:06:00.188Z,473.00
2023-05-05T11:07:01.075Z,473.00
2023-05-05T11:08:00.338Z,470.00
2023-05-05T11:09:00.332Z,471.00
2023-05-05T11:10:00.654Z,470.00
2023-05-05T11:11:00.426Z,472.00
2023-05-05T11:12:00.463Z,473.00
2023-05-05T11:13:00.522Z,473.00
2023-05-05T11:14:00.536Z,473.00
2023-05-05T11:15:00.590Z,474.00
2023-05-05T11:16:00.662Z,473.00
2023-05-05T11:17:00.722Z,473.00
2023-05-05T11:18:01.955Z,470.00
2023-05-05T11:19:00.808Z,470.00
2023-05-05T11:20:01.168Z,470.00
2023-05-05T11:21:00.887Z,468.00
2023-05-05T11:22:00.932Z,469.00
2023-05-05T11:23:00.986Z,473.00
2023-05-05T11:24:01.086Z,474.00
2023-05-05T11:25:01.074Z,475.00
2023-05-05T11:26:01.130Z,478.00
2023-05-05T11:27:01.170Z,480.00
2023-05-05T11:28:01.188Z,481.00
2023-05-05T11:29:01.246Z,482.00
2023-05-05T11:30:01.305Z,485.00
2023-05-05T11:31:01.396Z,483.00
2023-05-05T11:32:01.368Z,484.00
2023-05-05T11:33:01.464Z,481.00
2023-05-05T11:34:01.470Z,480.00
2023-05-05T11:35:01.657Z,479.00
2023-05-05T11:36:04.262Z,481.00
2023-05-05T11:37:01.561Z,480.00
2023-05-05T11:38:01.536Z,480.00
2023-05-05T11:39:01.557Z,480.00
2023-05-05T11:40:01.571Z,480.00
2023-05-05T11:41:01.516Z,481.00
2023-05-05T11:42:05.371Z,480.00
2023-05-05T11:43:02.525Z,479.00
2023-05-05T11:44:01.506Z,479.00
2023-05-05T11:45:01.503Z,479.00
2023-05-05T11:46:01.515Z,479.00
2023-05-05T11:47:01.506Z,482.00
2023-05-05T11:48:01.519Z,484.00
2023-05-05T11:49:01.489Z,485.00
2023-05-05T11:50:01.484Z,485.00
2023-05-05T11:51:01.460Z,485.00
2023-05-05T11:52:01.463Z,485.00
2023-05-05T11:53:01.438Z,485.00
2023-05-05T11:54:01.444Z,484.00
2023-05-05T11:55:01.538Z,482.00
2023-05-05T11:56:01.542Z,481.00
2023-05-05T11:57:01.592Z,481.00
2023-05-05T11:58:01.619Z,480.00
2023-05-05T11:59:01.665Z,481.00
2023-05-05T12:00:01.715Z,480.00
2023-05-05T12:01:01.765Z,480.00
2023-05-05T12:02:01.803Z,480.00
2023-05-05T12:03:02.003Z,480.00
2023-05-05T12:04:02.007Z,480.00
2023-05-05T12:05:01.989Z,477.00
2023-05-05T12:06:01.997Z,476.00
2023-05-05T12:07:02.051Z,476.00
2023-05-05T12:08:02.063Z,473.00
2023-05-05T12:09:02.129Z,471.00
2023-05-05T12:10:02.174Z,469.00
2023-05-05T12:11:02.212Z,470.00
2023-05-05T12:12:02.300Z,471.00
2023-05-05T12:13:02.372Z,472.00
2023-05-05T12:14:02.338Z,473.00
2023-05-05T12:15:02.460Z,474.00
2023-05-05T12:16:02.438Z,474.00
2023-05-05T12:17:02.467Z,474.00
2023-05-05T12:18:03.257Z,472.00
2023-05-05T12:19:02.559Z,475.00
2023-05-05T12:20:02.611Z,475.00
2023-05-05T12:21:02.638Z,474.00
2023-05-05T12:22:02.707Z,473.00
2023-05-05T12:23:02.741Z,474.00
2023-05-05T12:24:02.764Z,473.00
2023-05-05T12:25:02.850Z,472.00